createdAt,value
2022-12-23T00:01:48.116Z,6.20
2022-12-23T00:04:17.914Z,6.19
2022-12-23T00:06:47.360Z,6.19
2022-12-23T00:09:19.161Z,6.17
2022-12-23T00:12:02.848Z,6.16
2022-12-23T00:14:50.716Z,6.14
2022-12-23T00:17:23.490Z,6.12
2022-12-23T00:19:56.284Z,6.12
2022-12-23T00:23:05.746Z,6.04
2022-12-23T00:25:44.027Z,6.04
2022-12-23T00:28:39.529Z,6.09
2022-12-23T00:31:09.757Z,6.07
2022-12-23T00:33:41.969Z,6.04
2022-12-23T00:36:17.983Z,6.02
2022-12-23T00:39:06.298Z,5.99
2022-12-23T00:41:56.022Z,5.99
2022-12-23T00:44:39.511Z,5.97
2022-12-23T00:47:29.977Z,5.96
2022-12-23T00:49:59.522Z,5.92
2022-12-23T00:52:28.918Z,5.89
2022-12-23T00:54:59.367Z,5.90
2022-12-23T00:57:28.612Z,5.90
2022-12-23T01:00:00.885Z,5.92
2022-12-23T01:02:50.093Z,5.92
2022-12-23T01:05:38.328Z,5.86
2022-12-23T01:08:10.502Z,5.84
2022-12-23T01:10:41.090Z,5.82
2022-12-23T01:13:10.478Z,5.82
2022-12-23T01:15:44.187Z,5.82
2022-12-23T01:18:17.944Z,5.83
2022-12-23T01:20:49.884Z,5.82
2022-12-23T01:23:19.352Z,5.82
2022-12-23T01:25:57.583Z,5.81
2022-12-23T01:28:28.051Z,5.79
2022-12-23T01:30:59.293Z,5.77
2022-12-23T01:33:28.834Z,5.71
2022-12-23T01:36:02.329Z,5.72
2022-12-23T01:38:39.059Z,5.67
2022-12-23T01:41:29.265Z,5.67
2022-12-23T01:43:58.688Z,5.61
2022-12-23T01:46:30.200Z,5.58
2022-12-23T01:48:59.582Z,5.54
2022-12-23T01:51:30.271Z,5.52
2022-12-23T01:54:01.878Z,5.50
2022-12-23T01:56:34.843Z,5.45
2022-12-23T01:59:09.010Z,5.47
2022-12-23T02:01:57.195Z,5.45
2022-12-23T02:04:26.919Z,5.42
2022-12-23T02:07:14.387Z,5.39
2022-12-23T02:09:43.936Z,5.34
2022-12-23T02:12:38.810Z,5.30
2022-12-23T02:15:50.433Z,5.20
2022-12-23T02:18:39.110Z,5.14
2022-12-23T02:21:21.787Z,5.13
2022-12-23T02:24:32.336Z,5.14
2022-12-23T02:27:17.292Z,5.10
2022-12-23T02:30:06.660Z,5.08
2022-12-23T02:32:58.851Z,5.09
2022-12-23T02:35:44.133Z,5.09
2022-12-23T02:38:18.733Z,5.08
2022-12-23T02:40:58.874Z,5.07
2022-12-23T02:43:36.506Z,5.06
2022-12-23T02:46:11.083Z,5.05
2022-12-23T02:48:45.818Z,5.07
2022-12-23T02:51:16.561Z,5.06
2022-12-23T02:53:51.351Z,5.08
2022-12-23T02:56:23.442Z,5.09
2022-12-23T02:58:57.022Z,5.12
2022-12-23T03:01:29.774Z,5.14
2022-12-23T03:04:00.908Z,5.12
2022-12-23T03:06:34.844Z,5.15
2022-12-23T03:09:04.508Z,5.16
2022-12-23T03:11:47.061Z,5.16
2022-12-23T03:14:34.592Z,5.11
2022-12-23T03:17:18.420Z,5.10
2022-12-23T03:19:54.355Z,5.09
2022-12-23T03:22:32.725Z,5.06
2022-12-23T03:25:08.469Z,5.05
2022-12-23T03:27:43.176Z,5.05
2022-12-23T03:30:15.008Z,5.05
2022-12-23T03:32:49.604Z,5.01
2022-12-23T03:35:27.089Z,5.06
2022-12-23T03:38:00.717Z,5.04
2022-12-23T03:40:36.090Z,4.99
2022-12-23T03:43:11.453Z,4.97
2022-12-23T03:45:49.863Z,4.95
2022-12-23T03:48:23.883Z,4.93
2022-12-23T03:50:57.894Z,4.91
2022-12-23T03:53:31.087Z,4.87
2022-12-23T03:56:17.454Z,4.84
2022-12-23T03:58:53.512Z,4.84
2022-12-23T04:01:31.982Z,4.82
2022-12-23T04:04:09.030Z,4.79
2022-12-23T04:06:48.812Z,4.76
2022-12-23T04:09:22.328Z,4.74
2022-12-23T04:11:53.165Z,4.72
2022-12-23T04:17:21.694Z,4.65
2022-12-23T04:19:52.992Z,4.62
2022-12-23T04:22:26.405Z,4.60
2022-12-23T04:24:57.955Z,4.55
2022-12-23T04:27:30.122Z,4.51
2022-12-23T04:29:59.387Z,4.56
2022-12-23T04:32:28.593Z,4.57
2022-12-23T04:34:57.929Z,4.56
2022-12-23T04:37:30.114Z,4.57
2022-12-23T04:39:59.603Z,4.56
2022-12-23T04:42:36.910Z,4.50
2022-12-23T04:45:08.248Z,4.48
2022-12-23T04:47:37.796Z,4.48
2022-12-23T04:50:17.433Z,4.48
2022-12-23T04:52:46.801Z,4.47
2022-12-23T04:55:16.759Z,4.49
2022-12-23T04:57:48.521Z,4.51
2022-12-23T05:00:19.587Z,4.49
2022-12-23T05:02:49.192Z,4.48
2022-12-23T05:05:19.466Z,4.46
2022-12-23T05:07:50.246Z,4.44
2022-12-23T05:10:19.792Z,4.40
2022-12-23T05:12:49.062Z,4.37
2022-12-23T05:15:18.467Z,4.37
2022-12-23T05:17:48.073Z,4.34
2022-12-23T05:20:17.609Z,4.31
2022-12-23T05:22:46.917Z,4.31
2022-12-23T05:25:16.546Z,4.29
2022-12-23T05:27:45.985Z,4.28
2022-12-23T05:30:15.793Z,4.24
2022-12-23T05:32:46.349Z,4.21
2022-12-23T05:35:15.923Z,4.19
2022-12-23T05:37:45.498Z,4.15
2022-12-23T05:40:33.983Z,4.12
2022-12-23T05:43:10.471Z,4.02
2022-12-23T06:24:30.356Z,4.32
2022-12-23T06:27:23.244Z,4.26
2022-12-23T06:29:52.603Z,4.28
2022-12-23T06:32:22.565Z,4.32
2022-12-23T06:34:52.720Z,4.36
2022-12-23T06:37:25.182Z,4.38
2022-12-23T06:39:56.449Z,4.39
2022-12-23T06:42:25.776Z,4.43
2022-12-23T06:45:36.473Z,4.44
2022-12-23T06:48:06.902Z,4.43
2022-12-23T06:50:36.384Z,4.41
2022-12-23T06:53:05.786Z,4.47
2022-12-23T06:55:42.508Z,4.50
2022-12-23T06:58:14.571Z,4.50
2022-12-23T07:00:58.290Z,4.51
2022-12-23T07:03:42.931Z,4.44
2022-12-23T07:06:40.086Z,4.47
2022-12-23T07:09:10.017Z,4.46
2022-12-23T07:11:41.762Z,4.49
2022-12-23T07:14:11.581Z,4.51
2022-12-23T07:16:53.697Z,4.54
2022-12-23T07:19:23.513Z,4.54
2022-12-23T07:21:55.182Z,4.56
2022-12-23T07:24:24.837Z,4.58
2022-12-23T07:26:55.307Z,4.62
2022-12-23T07:29:24.633Z,4.65
2022-12-23T07:31:55.789Z,4.65
2022-12-23T07:34:25.138Z,4.70
2022-12-23T07:37:22.507Z,4.69
2022-12-23T07:39:51.919Z,4.71
2022-12-23T07:42:51.140Z,4.73
2022-12-23T07:45:14.131Z,4.74
2022-12-23T07:48:23.239Z,4.75
2022-12-23T07:51:38.546Z,4.72
2022-12-23T07:54:24.224Z,4.72
2022-12-23T07:57:04.240Z,4.71
2022-12-23T08:11:08.938Z,4.92
2022-12-23T08:13:43.448Z,4.87
2022-12-23T08:16:13.100Z,4.90
2022-12-23T08:18:42.765Z,4.94
2022-12-23T08:21:14.771Z,4.99
2022-12-23T08:23:44.476Z,5.03
2022-12-23T08:26:17.979Z,5.05
2022-12-23T08:28:48.106Z,5.09
2022-12-23T08:31:19.959Z,5.12
2022-12-23T08:33:53.214Z,5.15
2022-12-23T08:36:39.341Z,5.15
2022-12-23T08:39:38.697Z,5.16
2022-12-23T08:42:16.542Z,5.16
2022-12-23T08:45:22.235Z,5.16
2022-12-23T08:48:19.725Z,5.14
2022-12-23T08:50:55.946Z,5.15
2022-12-23T08:53:25.476Z,5.17
2022-12-23T08:56:50.447Z,5.16
2022-12-23T09:00:29.674Z,5.18
2022-12-23T09:04:15.696Z,5.15
2022-12-23T09:19:01.134Z,5.36
2022-12-23T09:32:33.991Z,5.56
2022-12-23T09:35:04.111Z,5.48
2022-12-23T09:37:33.444Z,5.54
2022-12-23T09:40:03.599Z,5.59
2022-12-23T09:42:50.424Z,5.64
2022-12-23T09:45:40.509Z,5.68
2022-12-23T09:48:16.437Z,5.69
2022-12-23T09:50:46.265Z,5.70
2022-12-23T09:53:18.615Z,5.72
2022-12-23T09:55:55.245Z,5.71
2022-12-23T09:58:30.256Z,5.69
2022-12-23T10:01:16.129Z,5.69
2022-12-23T10:04:08.248Z,5.67
2022-12-23T10:06:40.085Z,5.67
2022-12-23T10:09:12.760Z,5.68
2022-12-23T10:11:44.757Z,5.68
2022-12-23T10:14:19.769Z,5.68
2022-12-23T10:16:53.151Z,5.68
2022-12-23T10:19:28.072Z,5.68
2022-12-23T10:22:32.964Z,5.69
2022-12-23T10:25:04.010Z,5.63
2022-12-23T10:27:37.153Z,5.66
2022-12-23T10:30:42.471Z,5.66
2022-12-23T10:33:11.998Z,5.62
2022-12-23T10:35:48.926Z,5.60
2022-12-23T10:38:32.470Z,5.61
2022-12-23T10:41:10.730Z,5.62
2022-12-23T10:43:57.071Z,5.64
2022-12-23T10:46:36.279Z,5.67
2022-12-23T10:49:15.823Z,5.68
2022-12-23T10:51:49.895Z,5.71
2022-12-23T10:54:23.925Z,5.73
2022-12-23T10:56:54.305Z,5.75
2022-12-23T10:59:27.675Z,5.75
2022-12-23T11:02:05.222Z,5.77
2022-12-23T11:04:40.897Z,5.79
2022-12-23T11:10:32.747Z,5.84
2022-12-23T11:13:39.234Z,5.81
2022-12-23T11:16:46.036Z,5.80
2022-12-23T11:19:21.309Z,5.84
2022-12-23T11:21:56.677Z,5.88
2022-12-23T11:24:33.652Z,5.92
2022-12-23T11:27:13.057Z,5.94
2022-12-23T11:29:48.816Z,6.00
2022-12-23T11:32:23.591Z,6.04
2022-12-23T11:34:55.878Z,6.08
2022-12-23T11:37:37.974Z,6.12
2022-12-23T11:40:22.384Z,6.14
2022-12-23T11:42:56.591Z,6.18
2022-12-23T11:45:28.633Z,6.21
2022-12-23T11:47:58.776Z,6.26
2022-12-23T11:51:02.721Z,6.29
2022-12-23T11:53:44.253Z,6.30
2022-12-23T11:56:15.910Z,6.33
2022-12-23T11:58:55.381Z,6.38
2022-12-23T12:01:25.341Z,6.40
2022-12-23T12:04:07.734Z,6.43
2022-12-23T12:06:42.579Z,6.41
2022-12-23T12:09:13.813Z,6.46
2022-12-23T12:12:34.093Z,6.44
2022-12-23T12:15:26.013Z,6.43
2022-12-23T12:17:57.979Z,6.41
2022-12-23T12:20:31.933Z,6.45
2022-12-23T12:23:06.611Z,6.46
2022-12-23T12:25:42.464Z,6.46
2022-12-23T12:28:19.978Z,6.40
2022-12-23T12:30:56.292Z,6.42
2022-12-23T12:33:33.800Z,6.45
2022-12-23T12:36:14.226Z,6.47
2022-12-23T12:39:30.945Z,6.45
2022-12-23T12:42:06.189Z,6.43
2022-12-23T12:44:43.448Z,6.44
2022-12-23T12:47:52.166Z,6.51
2022-12-23T12:50:15.436Z,6.56
2022-12-23T12:52:45.037Z,6.55
2022-12-23T12:55:23.056Z,6.54
2022-12-23T12:57:58.717Z,6.54
2022-12-23T13:00:30.085Z,6.54
2022-12-23T13:03:20.703Z,6.58
2022-12-23T13:06:05.214Z,6.61
2022-12-23T13:08:57.349Z,6.61
2022-12-23T13:11:43.331Z,6.56
2022-12-23T13:14:33.301Z,6.59
2022-12-23T13:17:14.222Z,6.58
2022-12-23T13:19:51.426Z,6.52
2022-12-23T13:22:27.772Z,6.52
2022-12-23T13:25:04.238Z,6.57
2022-12-23T13:27:39.401Z,6.60
2022-12-23T13:30:13.586Z,6.59
2022-12-23T13:33:15.673Z,6.58
2022-12-23T13:40:00.125Z,6.51
2022-12-23T13:43:42.515Z,6.54
2022-12-23T13:46:35.140Z,6.51
2022-12-23T13:49:13.309Z,6.55
2022-12-23T13:51:51.216Z,6.59
2022-12-23T13:58:19.844Z,6.54
2022-12-23T14:00:58.706Z,6.52
2022-12-23T14:03:34.656Z,6.56
2022-12-23T14:06:41.747Z,6.52
2022-12-23T14:09:47.228Z,6.44
2022-12-23T14:12:27.128Z,6.39
2022-12-23T14:19:19.590Z,6.33
2022-12-23T14:22:58.295Z,6.35
2022-12-23T14:25:52.583Z,6.34
2022-12-23T14:28:58.118Z,6.33
2022-12-23T14:31:37.007Z,6.34
2022-12-23T14:59:37.786Z,6.52
2022-12-23T15:02:27.824Z,6.38
2022-12-23T15:05:14.031Z,6.36
2022-12-23T15:07:49.712Z,6.40
2022-12-23T15:10:26.053Z,6.41
2022-12-23T15:13:03.237Z,6.38
2022-12-23T15:15:38.865Z,6.41
2022-12-23T15:18:14.824Z,6.40
2022-12-23T15:20:59.151Z,6.39
2022-12-23T15:23:33.391Z,6.36
2022-12-23T15:26:06.921Z,6.33
2022-12-23T15:28:42.921Z,6.26
2022-12-23T15:31:29.731Z,6.29
2022-12-23T15:34:31.498Z,6.29
2022-12-23T15:37:18.465Z,6.26
2022-12-23T15:40:00.291Z,6.25
2022-12-23T15:42:38.754Z,6.23
2022-12-23T15:46:35.385Z,6.24
2022-12-23T15:50:25.451Z,6.12
2022-12-23T15:53:33.199Z,6.03
2022-12-23T15:56:09.771Z,6.01
2022-12-23T15:58:45.187Z,5.97
2022-12-23T16:01:26.413Z,6.02
2022-12-23T16:06:25.598Z,6.05
2022-12-23T16:09:04.083Z,5.90
2022-12-23T16:12:34.515Z,5.93
2022-12-23T16:15:28.055Z,5.92
2022-12-23T16:18:14.658Z,5.92
2022-12-23T16:20:50.371Z,5.93
2022-12-23T16:23:24.131Z,5.96
2022-12-23T16:25:57.450Z,5.97
2022-12-23T16:29:14.288Z,5.96
2022-12-23T16:32:43.371Z,5.90
2022-12-23T16:35:59.611Z,5.82
2022-12-23T16:38:46.427Z,5.81
2022-12-23T16:44:44.801Z,5.85
2022-12-23T16:47:26.604Z,5.83
2022-12-23T16:49:59.433Z,5.90
2022-12-23T16:53:03.074Z,5.94
2022-12-23T16:55:35.732Z,5.91
2022-12-23T16:58:08.423Z,5.96
2022-12-23T17:00:46.836Z,5.99
2022-12-23T17:03:21.649Z,5.99
2022-12-23T17:06:21.761Z,5.96
2022-12-23T17:08:56.746Z,5.95
2022-12-23T17:11:37.606Z,5.90
2022-12-23T17:14:18.983Z,5.92
2022-12-23T17:16:58.983Z,5.88
2022-12-23T17:19:34.657Z,5.89
2022-12-23T17:22:37.104Z,5.89
2022-12-23T17:25:11.400Z,5.84
2022-12-23T17:32:18.063Z,5.78
2022-12-23T17:35:26.207Z,5.65
2022-12-23T17:43:31.020Z,5.57
2022-12-23T17:46:45.883Z,5.67
2022-12-23T17:49:18.528Z,5.59
2022-12-23T17:51:51.176Z,5.58
2022-12-23T17:55:18.350Z,5.69
2022-12-23T17:57:51.798Z,5.67
2022-12-23T18:00:33.841Z,5.73
2022-12-23T18:03:21.875Z,5.77
2022-12-23T18:06:01.669Z,5.80
2022-12-23T18:09:09.618Z,5.81
2022-12-23T18:12:25.122Z,5.83
2022-12-23T18:14:58.449Z,5.75
2022-12-23T18:17:31.389Z,5.79
2022-12-23T18:20:29.781Z,5.78
2022-12-23T18:23:02.991Z,5.79
2022-12-23T18:26:11.744Z,5.81
2022-12-23T18:28:45.025Z,5.84
2022-12-23T18:32:39.025Z,5.83
2022-12-23T18:47:21.113Z,5.97
2022-12-23T18:49:54.577Z,5.87
2022-12-23T18:52:50.405Z,5.93
2022-12-23T18:55:20.334Z,5.92
2022-12-23T19:02:00.195Z,5.88
2022-12-23T19:04:30.088Z,5.86
2022-12-23T19:07:00.643Z,5.83
2022-12-23T19:13:44.404Z,5.75
2022-12-23T19:16:16.845Z,5.78
2022-12-23T19:19:03.047Z,5.80
2022-12-23T19:21:59.991Z,5.81
2022-12-23T19:33:28.312Z,5.61
2022-12-23T20:02:09.582Z,5.95
2022-12-23T20:47:40.419Z,5.91
2022-12-23T21:41:09.123Z,5.96
2022-12-23T22:11:53.080Z,5.87
2022-12-23T22:15:11.873Z,5.71
2022-12-23T23:06:25.752Z,5.85
2022-12-23T23:20:49.286Z,5.77
